createdAt,value
2019-03-26T00:01:13.314Z,3.8
2019-03-26T00:03:27.228Z,3.6
2019-03-26T00:05:41.123Z,3.5
2019-03-26T00:08:02.307Z,3
2019-03-26T00:10:24.563Z,3.6
2019-03-26T00:12:38.515Z,3.2
2019-03-26T00:15:00.535Z,3.1
2019-03-26T00:17:14.449Z,3.2
2019-03-26T00:19:28.327Z,3.2
2019-03-26T00:21:42.315Z,3
2019-03-26T00:23:56.219Z,3.6
2019-03-26T00:26:17.451Z,2.3
2019-03-26T00:28:31.390Z,2.9
2019-03-26T00:30:45.221Z,2.5
2019-03-26T00:33:06.364Z,2.7
2019-03-26T00:35:20.257Z,2.3
2019-03-26T00:37:34.128Z,2.5
2019-03-26T00:39:47.962Z,2.3
2019-03-26T00:42:02.119Z,3.4
2019-03-26T00:44:15.989Z,2.2
2019-03-26T00:46:31.088Z,2
2019-03-26T00:48:44.841Z,2.5
2019-03-26T00:50:58.783Z,2.8
2019-03-26T00:53:20.021Z,2.4
2019-03-26T00:55:33.983Z,2.3
2019-03-26T00:57:47.929Z,2
2019-03-26T01:00:02.039Z,2.1
2019-03-26T01:02:15.968Z,3
2019-03-26T01:04:32.899Z,2.4
2019-03-26T01:06:43.820Z,2.4
2019-03-26T01:08:57.727Z,2.2
2019-03-26T01:11:11.725Z,2.3
2019-03-26T01:13:32.979Z,2.3
2019-03-26T01:15:55.211Z,2.2
2019-03-26T01:18:09.203Z,2.7
2019-03-26T01:20:23.141Z,2.1
2019-03-26T01:22:44.345Z,2.6
2019-03-26T01:24:58.395Z,2.8
2019-03-26T01:27:12.169Z,2.3
2019-03-26T01:29:25.956Z,2.2
2019-03-26T01:31:39.721Z,2.3
2019-03-26T01:34:01.351Z,1.8
2019-03-26T01:36:15.348Z,2.3
2019-03-26T01:38:29.357Z,2.4
2019-03-26T01:40:43.248Z,2.5
2019-03-26T01:42:57.194Z,2.2
2019-03-26T01:45:11.051Z,2.5
2019-03-26T01:47:25.005Z,2.6
2019-03-26T01:49:46.246Z,2.5
2019-03-26T01:52:00.237Z,2.6
2019-03-26T01:54:14.200Z,2.1
2019-03-26T01:56:28.159Z,2.1
2019-03-26T01:58:49.509Z,1.8
2019-03-26T02:01:03.494Z,2.4
2019-03-26T02:03:24.752Z,2
2019-03-26T02:05:38.704Z,2.5
2019-03-26T02:07:52.591Z,2.3
2019-03-26T02:10:06.747Z,2.3
2019-03-26T02:12:20.674Z,2.2
2019-03-26T02:14:34.566Z,2.7
2019-03-26T02:16:48.660Z,2.4
2019-03-26T02:19:02.631Z,1.8
2019-03-26T02:21:16.562Z,1.9
2019-03-26T02:23:30.721Z,2
2019-03-26T02:25:45.649Z,2.5
2019-03-26T02:27:59.488Z,2.2
2019-03-26T02:30:13.432Z,2.2
2019-03-26T02:32:27.404Z,2.3
2019-03-26T02:34:41.403Z,2.2
2019-03-26T02:36:55.272Z,2.3
2019-03-26T02:39:09.264Z,2.1
2019-03-26T02:41:23.221Z,2.4
2019-03-26T02:43:37.240Z,1.9
2019-03-26T02:45:51.116Z,2.6
2019-03-26T02:48:04.989Z,2.2
2019-03-26T02:50:18.916Z,1.8
2019-03-26T02:52:32.955Z,2.2
2019-03-26T02:54:47.152Z,2.3
2019-03-26T02:57:01.087Z,2.2
2019-03-26T02:59:14.975Z,2
2019-03-26T03:01:29.046Z,2.2
2019-03-26T03:03:43.096Z,2.4
2019-03-26T03:05:57.154Z,2.4
2019-03-26T03:08:11.014Z,2.5
2019-03-26T03:10:24.863Z,2.5
2019-03-26T03:12:38.881Z,2.4
2019-03-26T03:14:53.183Z,2
2019-03-26T03:17:07.144Z,2.1
2019-03-26T03:19:21.073Z,2.3
2019-03-26T03:21:42.281Z,2.1
2019-03-26T03:23:56.281Z,2.3
2019-03-26T03:26:10.229Z,2
2019-03-26T03:28:24.147Z,1.8
2019-03-26T03:30:45.562Z,1.9
2019-03-26T03:33:07.126Z,1.9
2019-03-26T03:35:28.443Z,2.1
2019-03-26T03:37:58.812Z,2
2019-03-26T07:22:53.761Z,0
2019-03-26T07:25:07.462Z,3.4
2019-03-26T07:27:21.254Z,2.1
2019-03-26T07:29:35.025Z,2.8
2019-03-26T07:31:48.803Z,2.6
2019-03-26T07:34:02.582Z,2.5
2019-03-26T07:36:16.326Z,2.7
2019-03-26T07:38:30.088Z,2.4
2019-03-26T07:40:43.954Z,2.3
2019-03-26T07:42:57.780Z,2.6
2019-03-26T07:45:11.626Z,2.2
2019-03-26T07:47:25.490Z,2.2
2019-03-26T07:49:39.275Z,2.8
2019-03-26T07:51:53.044Z,2.5
2019-03-26T07:54:06.790Z,2.4
2019-03-26T07:56:20.669Z,2.6
2019-03-26T07:58:34.586Z,2.4
2019-03-26T08:00:48.392Z,2.6
2019-03-26T08:03:02.149Z,2.5
2019-03-26T08:05:29.015Z,2.3
2019-03-26T08:07:30.926Z,2.4
2019-03-26T08:09:44.764Z,2.2
2019-03-26T08:11:58.617Z,2.4
2019-03-26T08:14:13.438Z,2
2019-03-26T08:16:27.316Z,2.1
2019-03-26T08:18:41.311Z,2.4
2019-03-26T08:20:57.390Z,2.2
2019-03-26T08:23:09.240Z,2.1
2019-03-26T08:25:23.166Z,2.5
2019-03-26T08:27:37.054Z,2.6
2019-03-26T08:29:50.889Z,2.4
2019-03-26T08:32:04.690Z,2.2
2019-03-26T08:34:18.503Z,2
2019-03-26T08:36:32.309Z,2.8
2019-03-26T08:38:46.187Z,3.2
2019-03-26T08:41:00.017Z,3.6
2019-03-26T08:43:13.840Z,3.1
2019-03-26T08:45:27.656Z,2.9
2019-03-26T08:47:41.453Z,3.2
2019-03-26T08:49:55.207Z,3.9
2019-03-26T08:52:09.031Z,2.9
2019-03-26T08:54:22.798Z,3.2
2019-03-26T08:56:36.588Z,3.1
2019-03-26T08:58:50.433Z,3.6
2019-03-26T09:01:04.349Z,3.1
2019-03-26T09:03:25.771Z,3.1
2019-03-26T09:05:46.870Z,3.3
2019-03-26T09:08:00.845Z,3.6
2019-03-26T09:10:14.767Z,3.4
2019-03-26T09:12:28.801Z,3.4
2019-03-26T09:14:42.925Z,4.3
2019-03-26T09:16:57.832Z,4.4
2019-03-26T09:19:11.606Z,3.8
2019-03-26T09:21:25.414Z,4.5
2019-03-26T09:23:40.299Z,3.9
2019-03-26T09:25:54.101Z,4
2019-03-26T09:28:07.892Z,3.3
2019-03-26T09:30:21.681Z,3.4
2019-03-26T09:32:35.445Z,3.3
2019-03-26T09:34:49.193Z,3.7
2019-03-26T09:37:03.016Z,3.6
2019-03-26T09:39:16.937Z,3.9
2019-03-26T09:41:31.634Z,3.9
2019-03-26T09:43:45.467Z,4.1
2019-03-26T09:45:59.286Z,6
2019-03-26T09:48:13.251Z,5.7
2019-03-26T09:50:27.892Z,4.7
2019-03-26T09:52:41.782Z,5.2
2019-03-26T09:54:55.622Z,5.4
2019-03-26T09:57:09.515Z,5.1
2019-03-26T09:59:23.445Z,5.3
2019-03-26T10:01:37.345Z,5
2019-03-26T10:03:51.188Z,4.8
2019-03-26T10:06:05.088Z,4.8
2019-03-26T10:08:20.018Z,4.8
2019-03-26T10:10:33.893Z,4.6
2019-03-26T10:12:47.836Z,5.1
2019-03-26T10:15:01.712Z,5.2
2019-03-26T10:17:15.649Z,5.3
2019-03-26T10:19:29.632Z,5
2019-03-26T10:21:43.594Z,5.7
2019-03-26T10:23:57.437Z,5.2
2019-03-26T10:26:11.330Z,4.9
2019-03-26T10:28:25.190Z,5.5
2019-03-26T10:30:39.092Z,4.9
2019-03-26T10:32:52.878Z,5.1
2019-03-26T10:35:06.801Z,5.9
2019-03-26T10:37:20.760Z,6.4
2019-03-26T10:39:34.751Z,6.5
2019-03-26T10:41:48.624Z,5.5
2019-03-26T10:44:02.561Z,5.8
2019-03-26T10:46:16.429Z,6.5
2019-03-26T10:48:31.859Z,6.1
2019-03-26T10:50:44.343Z,5.6
2019-03-26T10:52:58.198Z,5.4
2019-03-26T10:55:12.152Z,5
2019-03-26T10:57:26.127Z,4.5
2019-03-26T10:59:40.415Z,4.2
2019-03-26T11:01:54.412Z,4.2
2019-03-26T11:04:09.538Z,3.9
2019-03-26T11:06:23.418Z,4.2
2019-03-26T11:08:37.233Z,4.2
2019-03-26T11:10:51.077Z,4.1
2019-03-26T11:13:05.027Z,4.5
2019-03-26T11:15:10.285Z,0
2019-03-26T11:17:24.055Z,3.9
2019-03-26T11:19:37.948Z,3.7
2019-03-26T11:21:51.752Z,4.2
2019-03-26T11:24:05.500Z,4.1
2019-03-26T11:26:19.333Z,3.8
2019-03-26T11:28:33.513Z,4.4
2019-03-26T11:30:47.405Z,4
2019-03-26T11:33:01.227Z,3.8
2019-03-26T11:35:15.034Z,4.1
2019-03-26T11:37:28.851Z,3.7
2019-03-26T11:39:42.704Z,3.8
2019-03-26T11:41:56.581Z,3.7
2019-03-26T11:44:10.422Z,4.4
2019-03-26T11:46:24.340Z,3.5
2019-03-26T11:48:38.119Z,4.7
2019-03-26T11:50:51.953Z,4.8
2019-03-26T11:53:05.756Z,4
2019-03-26T11:55:21.790Z,3.5
2019-03-26T11:57:32.340Z,3.8
2019-03-26T11:59:46.150Z,3.6
2019-03-26T12:01:59.978Z,3.7
2019-03-26T12:04:13.772Z,3.9
2019-03-26T12:06:27.558Z,4.2
2019-03-26T12:08:41.293Z,3.5
2019-03-26T12:10:55.083Z,3.9
2019-03-26T12:13:08.939Z,3.5
2019-03-26T12:15:22.760Z,2.7
2019-03-26T12:17:36.615Z,2.9
2019-03-26T12:19:50.495Z,3
2019-03-26T12:22:04.354Z,2.3
2019-03-26T12:24:18.251Z,2.7
2019-03-26T12:26:32.064Z,2.4
2019-03-26T12:28:45.905Z,2.2
2019-03-26T12:30:59.661Z,2.7
2019-03-26T12:33:13.552Z,2.5
2019-03-26T12:35:27.343Z,3.2
2019-03-26T12:37:41.164Z,3.2
2019-03-26T12:39:59.597Z,2.8
2019-03-26T12:42:10.543Z,3
2019-03-26T12:44:24.498Z,4
2019-03-26T12:46:38.390Z,3.7
2019-03-26T12:48:52.218Z,3.9
2019-03-26T12:51:06.282Z,3.9
2019-03-26T12:53:20.193Z,4
2019-03-26T12:55:34.120Z,3.9
2019-03-26T12:57:48.099Z,3.6
2019-03-26T13:00:01.978Z,3.9
2019-03-26T13:02:14.858Z,3.4
2019-03-26T13:04:28.759Z,3.9
2019-03-26T13:06:42.643Z,3.6
2019-03-26T13:08:56.508Z,4
2019-03-26T13:11:09.682Z,4
2019-03-26T13:13:24.588Z,3.8
2019-03-26T13:15:38.433Z,3.9
2019-03-26T13:17:52.688Z,3.3
2019-03-26T13:20:05.517Z,3.1
2019-03-26T13:22:19.402Z,2.6
2019-03-26T13:24:33.321Z,2.6
2019-03-26T13:26:48.950Z,2.1
2019-03-26T13:29:01.602Z,2.6
2019-03-26T13:31:15.564Z,2.8
2019-03-26T13:33:29.497Z,3
2019-03-26T13:35:43.446Z,3.9
2019-03-26T13:37:57.358Z,3.8
2019-03-26T15:35:24.157Z,0
2019-03-26T15:37:38.021Z,5.3
2019-03-26T15:39:51.850Z,5.1
2019-03-26T15:42:05.615Z,4.5
2019-03-26T15:44:19.636Z,4.5
2019-03-26T15:46:36.261Z,4.1
2019-03-26T15:48:47.110Z,3.9
2019-03-26T15:51:00.917Z,4.4
2019-03-26T15:53:14.749Z,3.7
2019-03-26T15:55:28.571Z,3.6
2019-03-26T15:57:42.339Z,4
2019-03-26T15:59:56.156Z,3.9
2019-03-26T16:02:09.956Z,4.3
2019-03-26T16:04:23.828Z,3.1
2019-03-26T16:06:37.580Z,3.5
2019-03-26T16:08:51.383Z,3
2019-03-26T16:11:05.191Z,3.2
2019-03-26T16:13:18.952Z,3.2
2019-03-26T16:15:43.427Z,3.3
2019-03-26T16:17:47.444Z,3
2019-03-26T16:20:01.285Z,3.1
2019-03-26T16:22:17.709Z,3
2019-03-26T16:24:28.873Z,2.8
2019-03-26T16:26:42.637Z,2.9
2019-03-26T16:28:56.434Z,2.7
2019-03-26T16:31:10.231Z,3.1
2019-03-26T16:33:24.004Z,3.2
2019-03-26T16:35:40.145Z,2.8
2019-03-26T16:37:51.598Z,2.9
2019-03-26T16:40:05.374Z,2.9
2019-03-26T16:42:19.182Z,3.2
2019-03-26T16:44:32.931Z,2.3
2019-03-26T16:46:46.728Z,3.3
2019-03-26T16:49:00.498Z,2.7
2019-03-26T16:51:14.298Z,3.2
2019-03-26T16:53:28.138Z,2.7
2019-03-26T16:55:41.996Z,3.1
2019-03-26T16:57:55.786Z,2.7
2019-03-26T17:00:09.543Z,2.6
2019-03-26T17:02:23.328Z,3.3
2019-03-26T17:04:37.134Z,2.5
2019-03-26T17:06:50.973Z,3.8
2019-03-26T17:09:04.763Z,3.4
2019-03-26T17:11:18.562Z,3.1
2019-03-26T17:13:32.350Z,2.7
2019-03-26T17:15:46.151Z,2.7
2019-03-26T17:17:59.988Z,2.9
2019-03-26T17:20:13.749Z,2.8
2019-03-26T17:22:27.541Z,3.5
2019-03-26T17:24:41.282Z,3.2
2019-03-26T17:26:55.116Z,3.8
2019-03-26T17:29:08.872Z,2.9
2019-03-26T17:31:22.659Z,3.4
2019-03-26T17:33:36.446Z,3
2019-03-26T17:35:50.251Z,2.6
2019-03-26T17:38:04.006Z,3
2019-03-26T17:40:17.784Z,2.6
2019-03-26T17:42:31.569Z,2.7
2019-03-26T17:44:45.388Z,2.4
2019-03-26T17:46:59.233Z,2.5
2019-03-26T17:49:13.045Z,2.8
2019-03-26T17:51:26.784Z,2.6
2019-03-26T17:53:40.569Z,3
2019-03-26T17:55:55.326Z,2.9
2019-03-26T17:58:09.137Z,2.6
2019-03-26T18:00:22.892Z,2.4
2019-03-26T18:02:36.685Z,2.8
2019-03-26T18:04:50.528Z,2.4
2019-03-26T18:07:05.530Z,2.7
2019-03-26T18:09:18.050Z,2.8
2019-03-26T18:11:31.913Z,2.5
2019-03-26T18:13:45.863Z,2.5
2019-03-26T18:15:59.674Z,2.8
2019-03-26T18:18:13.515Z,3
2019-03-26T18:20:32.671Z,2.5
2019-03-26T18:22:42.359Z,2.3
2019-03-26T18:24:56.177Z,2.6
2019-03-26T18:27:10.014Z,2.8
2019-03-26T18:29:23.857Z,2.7
2019-03-26T18:31:37.694Z,2.4
2019-03-26T18:33:51.622Z,3.1
2019-03-26T18:36:05.478Z,2.6
2019-03-26T18:38:19.306Z,2.7
2019-03-26T18:40:33.191Z,2.9
2019-03-26T18:42:47.090Z,3
2019-03-26T18:45:00.928Z,3
2019-03-26T18:47:14.809Z,3
2019-03-26T18:49:28.678Z,3.3
2019-03-26T18:51:42.584Z,2.8
2019-03-26T18:53:56.383Z,3.2
2019-03-26T18:55:25.098Z,0
2019-03-26T18:57:36.731Z,2.8
2019-03-26T18:59:50.832Z,3.3
2019-03-26T19:02:04.764Z,3
2019-03-26T19:04:18.655Z,3.1
2019-03-26T19:06:32.555Z,2.9
2019-03-26T19:08:46.512Z,3.1
2019-03-26T19:11:00.634Z,3.2
2019-03-26T19:13:19.511Z,3.1
2019-03-26T19:15:29.378Z,3.1
2019-03-26T19:17:43.248Z,3.1
2019-03-26T19:19:58.446Z,2.8
2019-03-26T19:22:11.065Z,3.2
2019-03-26T19:24:24.933Z,3.3
2019-03-26T19:26:38.838Z,3.3
2019-03-26T19:28:52.782Z,3.3
2019-03-26T19:31:06.653Z,3
2019-03-26T19:33:20.865Z,3.2
2019-03-26T19:35:34.872Z,3.5
2019-03-26T19:37:48.748Z,3.3
2019-03-26T19:40:02.603Z,3.7
2019-03-26T19:42:16.557Z,3.6
2019-03-26T19:44:30.435Z,3.2
2019-03-26T19:46:44.314Z,3.3
2019-03-26T19:48:58.364Z,3.6
2019-03-26T19:51:12.228Z,3.6
2019-03-26T19:53:26.111Z,3.2
2019-03-26T19:55:40.172Z,3.5
2019-03-26T19:57:54.031Z,3.6
2019-03-26T20:00:07.866Z,3.8
2019-03-26T20:02:21.871Z,3.8
2019-03-26T20:04:35.739Z,4
2019-03-26T20:06:49.574Z,3.6
2019-03-26T20:09:03.565Z,3.9
2019-03-26T20:11:17.442Z,3.9
2019-03-26T20:13:31.289Z,5.2
2019-03-26T20:15:45.318Z,8.2
2019-03-26T20:17:59.234Z,7.7
2019-03-26T20:20:13.149Z,8
2019-03-26T20:22:27.041Z,5
2019-03-26T20:24:40.927Z,4.7
2019-03-26T20:26:54.836Z,4.7
2019-03-26T20:29:08.707Z,4.7
2019-03-26T20:31:22.615Z,4.3
2019-03-26T20:33:36.507Z,4.1
2019-03-26T20:35:51.358Z,3.8
2019-03-26T20:38:05.242Z,3.6
2019-03-26T20:40:19.151Z,3.7
2019-03-26T20:42:33.285Z,3.3
2019-03-26T20:44:54.296Z,3.4
2019-03-26T20:47:08.368Z,3.8
2019-03-26T20:49:22.123Z,3.8
2019-03-26T20:51:35.912Z,3.2
2019-03-26T20:53:49.709Z,3.4
2019-03-26T20:56:03.561Z,3.6
2019-03-26T20:58:17.272Z,3.7
2019-03-26T21:00:31.055Z,3.5
2019-03-26T21:02:44.813Z,3.2
2019-03-26T21:04:59.294Z,3.9
2019-03-26T21:07:13.249Z,3.4
2019-03-26T21:09:27.226Z,4
2019-03-26T21:11:41.537Z,4.1
2019-03-26T21:13:55.341Z,3.7
2019-03-26T21:31:14.924Z,0
2019-03-26T21:33:28.818Z,4.3
2019-03-26T21:35:42.724Z,4.7
2019-03-26T21:37:56.599Z,4.6
2019-03-26T21:40:10.547Z,4.9
2019-03-26T21:42:24.472Z,5.7
2019-03-26T21:44:38.430Z,5.1
2019-03-26T21:46:52.349Z,5
2019-03-26T21:49:06.235Z,5.2
2019-03-26T21:51:20.181Z,5.1
2019-03-26T21:53:34.244Z,5.2
2019-03-26T21:55:48.239Z,5.4
2019-03-26T21:58:03.184Z,5.2
2019-03-26T22:00:17.148Z,5.2
2019-03-26T22:02:31.112Z,5.4
2019-03-26T22:04:45.107Z,4.7
2019-03-26T22:06:59.160Z,5.1
2019-03-26T22:09:13.115Z,4.9
2019-03-26T22:11:27.144Z,5.1
2019-03-26T22:13:41.262Z,6
2019-03-26T22:15:55.199Z,5.7
2019-03-26T22:18:09.202Z,5.1
2019-03-26T22:20:23.205Z,5.3
2019-03-26T22:22:37.242Z,5.6
2019-03-26T22:24:51.216Z,4.8
2019-03-26T22:27:05.236Z,5.9
2019-03-26T22:29:19.221Z,5.6
2019-03-26T22:31:33.221Z,5.3
2019-03-26T22:33:47.288Z,5.2
2019-03-26T22:36:01.419Z,5.5
2019-03-26T22:38:15.601Z,5.7
2019-03-26T22:40:29.556Z,5.4
2019-03-26T22:42:43.601Z,6
2019-03-26T22:44:57.593Z,5.4
2019-03-26T22:47:11.610Z,5.6
2019-03-26T22:49:25.582Z,5.3
2019-03-26T22:51:39.621Z,5.5
2019-03-26T22:53:53.578Z,5.9
2019-03-26T22:56:08.587Z,5.4
2019-03-26T22:58:22.556Z,5.2
2019-03-26T23:00:36.603Z,5.6
2019-03-26T23:02:50.567Z,6.3
2019-03-26T23:05:04.573Z,6.1
2019-03-26T23:07:18.571Z,5.8
2019-03-26T23:09:32.633Z,5.4
2019-03-26T23:11:47.639Z,5.1
2019-03-26T23:14:02.486Z,5.9
2019-03-26T23:16:16.468Z,6
2019-03-26T23:18:39.009Z,5.6
2019-03-26T23:20:52.641Z,5.8
2019-03-26T23:23:14.762Z,5.7
2019-03-26T23:25:28.821Z,5.7
2019-03-26T23:27:53.138Z,5.9
2019-03-26T23:30:07.139Z,5.7
2019-03-26T23:32:21.155Z,5.5
2019-03-26T23:34:35.228Z,5.8
2019-03-26T23:36:51.758Z,6.2
2019-03-26T23:39:05.782Z,5.6
2019-03-26T23:41:19.072Z,6.3
2019-03-26T23:43:33.070Z,6.4
2019-03-26T23:45:47.162Z,6.5
2019-03-26T23:48:01.781Z,5.5
2019-03-26T23:50:15.866Z,6.2
2019-03-26T23:52:29.522Z,6.4
2019-03-26T23:54:44.389Z,6.4
2019-03-26T23:56:58.351Z,6.1
2019-03-26T23:59:13.321Z,6.4
